Time;durP1;ratioP1;P1;durP2;ratioP2;P2;SDS_P1;SDS_P2;PMS_P1;PMS_P2;Temp;Humidity;BMP_temperature;BMP_pressure;BME280_temperature;BME280_humidity;BME280_pressure;Samples;Min_cycle;Max_cycle;Signal;HPM_P1;HPM_P2
2021/10/24 00:01:48;;;;;;;1.90;1.80;;;9.50;99.90;;;;;;5039663;28;20709;-76
2021/10/24 00:04:15;;;;;;;2.17;2.08;;;9.50;99.90;;;;;;5042752;28;20223;-76
2021/10/24 00:06:42;;;;;;;1.88;1.77;;;9.40;99.90;;;;;;5038960;28;20636;-76
2021/10/24 00:09:11;;;;;;;2.42;2.22;;;9.40;99.90;;;;;;5043218;28;20276;-78
2021/10/24 00:11:38;;;;;;;2.05;1.95;;;9.40;99.90;;;;;;5038679;28;20218;-77
2021/10/24 00:14:07;;;;;;;1.83;1.73;;;9.30;99.90;;;;;;5041687;28;20225;-76
2021/10/24 00:16:34;;;;;;;2.15;2.05;;;9.30;99.90;;;;;;5040665;28;20223;-76
2021/10/24 00:19:01;;;;;;;2.45;2.30;;;9.30;99.90;;;;;;5040363;28;20223;-76
2021/10/24 00:21:29;;;;;;;2.88;1.92;;;9.20;99.90;;;;;;5039285;28;20254;-77
2021/10/24 00:23:56;;;;;;;2.15;2.05;;;9.20;99.90;;;;;;5039296;28;20743;-76
2021/10/24 00:26:24;;;;;;;1.80;1.70;;;9.20;99.90;;;;;;5039723;28;20226;-76
2021/10/24 00:28:51;;;;;;;2.30;2.10;;;9.10;99.90;;;;;;5040927;28;20222;-78
2021/10/24 00:31:18;;;;;;;2.05;1.90;;;9.10;99.90;;;;;;5042254;28;20234;-76
2021/10/24 00:33:46;;;;;;;2.30;2.20;;;9.10;99.90;;;;;;5044122;28;20215;-76
2021/10/24 00:36:13;;;;;;;2.20;2.00;;;9.10;99.90;;;;;;5045855;28;20308;-77
2021/10/24 00:38:40;;;;;;;1.90;1.80;;;9.00;99.90;;;;;;5042076;28;20277;-80
2021/10/24 00:41:07;;;;;;;1.58;1.58;;;9.00;99.90;;;;;;5041484;28;20227;-76
2021/10/24 00:43:35;;;;;;;2.03;1.92;;;9.10;99.90;;;;;;5042775;28;20613;-76
2021/10/24 00:46:02;;;;;;;2.10;2.00;;;9.10;99.90;;;;;;5043526;28;20728;-79
2021/10/24 00:48:29;;;;;;;2.03;1.92;;;9.10;99.90;;;;;;5040175;28;20770;-77
2021/10/24 00:50:56;;;;;;;2.10;2.00;;;9.10;99.90;;;;;;5040616;28;20316;-77
2021/10/24 00:53:23;;;;;;;1.75;1.65;;;9.10;99.90;;;;;;5042934;28;20219;-75
2021/10/24 00:55:50;;;;;;;2.15;2.03;;;9.20;99.90;;;;;;5044079;28;20222;-77
2021/10/24 00:58:18;;;;;;;2.13;2.03;;;9.20;99.90;;;;;;5042366;28;20223;-79
2021/10/24 01:00:46;;;;;;;2.10;2.00;;;9.30;99.90;;;;;;5042276;28;20229;-77
2021/10/24 01:03:13;;;;;;;2.00;1.90;;;9.20;99.90;;;;;;5042808;28;20636;-76
2021/10/24 01:05:41;;;;;;;1.77;1.67;;;9.30;99.90;;;;;;5040884;28;20223;-77
2021/10/24 01:08:09;;;;;;;2.17;1.98;;;9.20;99.90;;;;;;5021683;28;20248;-76
2021/10/24 01:10:37;;;;;;;1.80;1.70;;;9.30;99.90;;;;;;5065433;28;20254;-77
2021/10/24 01:13:05;;;;;;;1.60;1.50;;;9.30;99.90;;;;;;5044492;28;20219;-77
2021/10/24 01:15:32;;;;;;;1.80;1.70;;;9.30;99.90;;;;;;5043869;28;20234;-76
2021/10/24 01:18:00;;;;;;;2.10;1.70;;;9.30;99.90;;;;;;5039542;28;20239;-75
2021/10/24 01:20:29;;;;;;;2.33;2.15;;;9.30;99.90;;;;;;5044855;28;20782;-76
2021/10/24 01:22:58;;;;;;;2.13;2.03;;;9.30;99.90;;;;;;5041605;28;20239;-77
2021/10/24 01:25:26;;;;;;;2.05;1.88;;;9.30;99.90;;;;;;5043828;28;20319;-78
2021/10/24 01:27:53;;;;;;;1.98;1.88;;;9.30;99.90;;;;;;5038822;28;20292;-75
2021/10/24 01:30:22;;;;;;;2.00;1.90;;;9.20;99.90;;;;;;5042853;28;20241;-76
2021/10/24 01:32:49;;;;;;;2.65;1.60;;;9.20;99.90;;;;;;5070122;22;20225;-80
2021/10/24 01:35:16;;;;;;;1.73;1.63;;;9.20;99.90;;;;;;5057685;28;20227;-77
2021/10/24 01:37:45;;;;;;;1.85;1.75;;;9.10;99.90;;;;;;5061240;28;20222;-77
2021/10/24 01:40:16;;;;;;;1.88;1.77;;;9.10;99.90;;;;;;5060276;28;20237;-77
2021/10/24 01:42:53;;;;;;;1.92;1.80;;;9.10;99.90;;;;;;5066023;28;20275;-78
2021/10/24 01:45:22;;;;;;;1.80;1.70;;;9.00;99.90;;;;;;5062450;28;20275;-78
2021/10/24 01:47:50;;;;;;;2.33;2.10;;;9.00;99.90;;;;;;5064736;28;20242;-78
2021/10/24 01:50:17;;;;;;;2.13;2.03;;;8.90;99.90;;;;;;5066666;28;20226;-78
2021/10/24 01:52:45;;;;;;;2.03;1.92;;;8.90;99.90;;;;;;5062112;28;20222;-78
2021/10/24 01:55:14;;;;;;;2.05;1.95;;;8.90;99.90;;;;;;5061757;28;20222;-79
2021/10/24 01:57:44;;;;;;;1.95;1.85;;;8.80;99.90;;;;;;5066146;28;20654;-78
2021/10/24 02:00:12;;;;;;;2.08;1.98;;;8.80;99.90;;;;;;5065650;28;20279;-78
2021/10/24 02:02:39;;;;;;;1.95;1.85;;;8.80;99.90;;;;;;5051511;28;20589;-78
2021/10/24 02:05:07;;;;;;;2.10;2.00;;;8.80;99.90;;;;;;5058780;28;20218;-77
2021/10/24 02:07:34;;;;;;;4.78;2.03;;;8.70;99.90;;;;;;5063155;28;20375;-78
2021/10/24 02:10:01;;;;;;;2.20;2.00;;;8.70;99.90;;;;;;5062431;28;20732;-79
2021/10/24 02:12:30;;;;;;;2.10;2.00;;;8.60;99.90;;;;;;5066598;28;20283;-78
2021/10/24 02:14:57;;;;;;;1.83;1.73;;;8.60;99.90;;;;;;5064367;28;20351;-81
2021/10/24 02:17:24;;;;;;;2.00;1.90;;;8.70;99.90;;;;;;5063610;28;20233;-78
2021/10/24 02:19:51;;;;;;;1.92;1.83;;;8.70;99.90;;;;;;5064484;28;20675;-78
2021/10/24 02:22:18;;;;;;;2.78;2.42;;;8.70;99.90;;;;;;5058547;28;20218;-78
2021/10/24 02:24:45;;;;;;;2.00;1.90;;;8.70;99.90;;;;;;5063489;28;20727;-79
2021/10/24 02:27:12;;;;;;;2.30;2.20;;;8.70;99.90;;;;;;5062262;28;20255;-78
2021/10/24 02:29:40;;;;;;;1.90;1.80;;;8.70;99.90;;;;;;5066040;28;20654;-77
2021/10/24 02:32:08;;;;;;;2.00;1.90;;;8.60;99.90;;;;;;5061587;28;20779;-78
2021/10/24 02:34:35;;;;;;;2.42;2.22;;;8.60;99.90;;;;;;5064943;28;20222;-78
2021/10/24 02:37:02;;;;;;;2.30;2.15;;;8.60;99.90;;;;;;5036554;28;20230;-78
2021/10/24 02:39:29;;;;;;;1.70;1.60;;;8.60;99.90;;;;;;5066856;28;20275;-78
2021/10/24 02:41:56;;;;;;;2.30;2.20;;;8.60;99.90;;;;;;5065192;28;20229;-78
2021/10/24 02:44:23;;;;;;;1.77;1.67;;;8.60;99.90;;;;;;5063043;28;20628;-78
2021/10/24 02:46:53;;;;;;;2.10;1.90;;;8.50;99.90;;;;;;5064629;28;20222;-78
2021/10/24 02:49:20;;;;;;;1.98;1.88;;;8.40;99.90;;;;;;5066775;28;20221;-78
2021/10/24 02:51:47;;;;;;;1.83;1.73;;;8.30;99.90;;;;;;5061781;28;20456;-77
2021/10/24 02:54:14;;;;;;;2.53;2.33;;;8.30;99.90;;;;;;5061463;28;20298;-78
2021/10/24 02:56:41;;;;;;;1.85;1.75;;;8.20;99.90;;;;;;5067177;28;20233;-78
2021/10/24 02:59:08;;;;;;;2.05;1.95;;;8.10;99.90;;;;;;5062228;28;20279;-79
2021/10/24 03:01:35;;;;;;;1.92;1.73;;;8.10;99.90;;;;;;5063501;28;20226;-78
2021/10/24 03:04:04;;;;;;;2.05;1.95;;;8.10;99.90;;;;;;5062873;28;20218;-78
2021/10/24 03:06:32;;;;;;;2.25;2.15;;;8.00;99.90;;;;;;5063706;28;20214;-77
2021/10/24 03:08:59;;;;;;;1.80;1.70;;;8.00;99.90;;;;;;5058163;28;20287;-79
2021/10/24 03:11:26;;;;;;;1.80;1.70;;;7.90;99.90;;;;;;5060518;28;20221;-78
2021/10/24 03:13:53;;;;;;;2.20;2.10;;;7.90;99.90;;;;;;5060432;28;20283;-79
2021/10/24 03:16:20;;;;;;;1.90;1.80;;;7.90;99.90;;;;;;5055070;28;20214;-79
2021/10/24 03:18:47;;;;;;;1.85;1.75;;;7.80;99.90;;;;;;5064170;28;20635;-79
2021/10/24 03:21:15;;;;;;;1.92;1.80;;;7.80;99.90;;;;;;5061471;28;20218;-79
2021/10/24 03:23:42;;;;;;;2.10;2.00;;;7.80;99.90;;;;;;5064196;28;20569;-78
2021/10/24 03:26:10;;;;;;;2.22;2.13;;;7.80;99.90;;;;;;5064690;28;20213;-77
2021/10/24 03:28:37;;;;;;;2.00;1.90;;;7.80;99.90;;;;;;5067309;28;20217;-79
2021/10/24 03:31:04;;;;;;;2.20;2.10;;;7.80;99.90;;;;;;5070786;28;20259;-79
2021/10/24 03:33:31;;;;;;;2.15;2.05;;;7.80;99.90;;;;;;5070137;28;20651;-77
2021/10/24 03:35:58;;;;;;;2.05;1.95;;;7.80;99.90;;;;;;5069688;28;20225;-78
2021/10/24 03:38:27;;;;;;;2.22;2.13;;;7.80;99.90;;;;;;5070488;28;20234;-79
2021/10/24 03:40:54;;;;;;;2.00;1.77;;;7.70;99.90;;;;;;5069213;28;20638;-78
2021/10/24 03:43:21;;;;;;;2.30;2.20;;;7.70;99.90;;;;;;5068112;28;20222;-79
2021/10/24 03:45:48;;;;;;;2.15;2.05;;;7.70;99.90;;;;;;5064964;28;20286;-77
2021/10/24 03:48:15;;;;;;;2.05;1.95;;;7.60;99.90;;;;;;5067427;28;20609;-80
2021/10/24 03:50:42;;;;;;;2.30;2.10;;;7.60;99.90;;;;;;5069821;28;20218;-78
2021/10/24 03:53:09;;;;;;;2.00;1.90;;;7.50;99.90;;;;;;5074101;28;20268;-77
2021/10/24 03:55:38;;;;;;;2.50;2.38;;;7.50;99.90;;;;;;5068627;28;20222;-77
2021/10/24 03:58:05;;;;;;;3.58;2.25;;;7.50;99.90;;;;;;5068813;28;20672;-79
2021/10/24 04:00:32;;;;;;;2.70;2.50;;;7.50;99.90;;;;;;5071173;28;20699;-77
2021/10/24 04:03:01;;;;;;;2.17;2.08;;;7.50;99.90;;;;;;5070445;28;20301;-78
2021/10/24 04:05:29;;;;;;;2.35;1.92;;;7.50;99.90;;;;;;5071733;28;20676;-79
2021/10/24 04:07:56;;;;;;;2.30;2.20;;;7.50;99.90;;;;;;5070947;28;20198;-78
2021/10/24 04:10:25;;;;;;;2.10;2.00;;;7.50;99.90;;;;;;5074885;28;20271;-78
2021/10/24 04:12:53;;;;;;;2.10;2.00;;;7.50;99.90;;;;;;5068214;28;20222;-78
2021/10/24 04:15:22;;;;;;;2.28;2.17;;;7.40;99.90;;;;;;5064843;28;20275;-80
2021/10/24 04:17:49;;;;;;;2.13;2.03;;;7.40;99.90;;;;;;5071485;28;20283;-79
2021/10/24 04:20:17;;;;;;;1.92;1.83;;;7.40;99.90;;;;;;5070460;28;20578;-78
2021/10/24 04:22:45;;;;;;;2.10;2.00;;;7.40;99.90;;;;;;5069829;28;20317;-78
2021/10/24 04:25:13;;;;;;;2.92;2.00;;;7.40;99.90;;;;;;5065459;28;20313;-78
2021/10/24 04:27:40;;;;;;;2.33;2.22;;;7.30;99.90;;;;;;5068322;28;20343;-79
2021/10/24 04:30:11;;;;;;;2.42;2.22;;;7.30;99.90;;;;;;5067745;28;20226;-78
2021/10/24 04:32:40;;;;;;;2.40;2.30;;;7.20;99.90;;;;;;5066903;28;20247;-80
2021/10/24 04:35:08;;;;;;;2.50;2.30;;;7.20;99.90;;;;;;5070304;28;20249;-79
2021/10/24 04:37:35;;;;;;;2.85;2.20;;;7.20;99.90;;;;;;5069677;28;20231;-79
2021/10/24 04:40:03;;;;;;;2.00;1.90;;;7.20;99.90;;;;;;5041385;28;20240;-79
2021/10/24 04:42:30;;;;;;;2.03;1.92;;;7.10;99.90;;;;;;5069443;28;20260;-78
2021/10/24 04:44:57;;;;;;;2.00;1.90;;;7.10;99.90;;;;;;5058288;28;20225;-78
2021/10/24 04:47:25;;;;;;;2.30;2.15;;;7.10;99.90;;;;;;5070849;28;20222;-79
2021/10/24 04:49:52;;;;;;;2.28;2.17;;;7.10;99.90;;;;;;5068215;28;20581;-78
2021/10/24 04:52:19;;;;;;;2.28;2.17;;;7.10;99.90;;;;;;5063213;28;20232;-78
2021/10/24 04:54:46;;;;;;;1.90;1.80;;;7.10;99.90;;;;;;5067394;28;20301;-79
2021/10/24 04:57:14;;;;;;;2.05;1.95;;;7.00;99.90;;;;;;5067049;28;20226;-79
2021/10/24 04:59:41;;;;;;;2.00;1.90;;;7.00;99.90;;;;;;5069773;28;20222;-78
2021/10/24 05:02:08;;;;;;;2.20;2.10;;;7.10;99.90;;;;;;5063485;28;20243;-78
2021/10/24 05:04:38;;;;;;;2.60;2.50;;;7.10;99.90;;;;;;5070961;28;20708;-78
2021/10/24 05:07:05;;;;;;;2.15;2.05;;;7.10;99.90;;;;;;5067256;28;20231;-79
2021/10/24 05:09:32;;;;;;;2.15;2.00;;;7.00;99.90;;;;;;5042976;28;20636;-80
2021/10/24 05:11:59;;;;;;;2.00;1.90;;;7.00;99.90;;;;;;5068988;28;20225;-80
2021/10/24 05:14:26;;;;;;;2.13;2.03;;;7.00;99.90;;;;;;5071128;28;20222;-79
2021/10/24 05:16:53;;;;;;;2.28;2.17;;;7.00;99.90;;;;;;5066971;28;20225;-78
2021/10/24 05:19:20;;;;;;;2.17;2.00;;;7.00;99.90;;;;;;5066674;28;20222;-78
2021/10/24 05:21:48;;;;;;;2.33;2.22;;;6.90;99.90;;;;;;5070169;28;20234;-77
2021/10/24 05:24:15;;;;;;;2.30;2.20;;;6.90;99.90;;;;;;5062677;28;20692;-79
2021/10/24 05:26:43;;;;;;;2.42;2.33;;;6.80;99.90;;;;;;5070898;28;20279;-78
2021/10/24 05:29:10;;;;;;;3.25;2.33;;;6.80;99.90;;;;;;5070223;28;20226;-78
2021/10/24 05:31:37;;;;;;;2.67;2.47;;;6.80;99.90;;;;;;5065239;28;20222;-78
2021/10/24 05:34:04;;;;;;;2.05;1.95;;;6.80;99.90;;;;;;5069222;28;20311;-78
2021/10/24 05:36:31;;;;;;;2.38;2.28;;;6.80;99.90;;;;;;5069825;28;20222;-78
2021/10/24 05:38:59;;;;;;;2.35;2.20;;;6.80;99.90;;;;;;5069969;28;20230;-78
2021/10/24 05:41:27;;;;;;;2.05;1.95;;;6.70;99.90;;;;;;5066852;28;20231;-80
2021/10/24 05:43:55;;;;;;;2.40;2.30;;;6.70;99.90;;;;;;5066788;28;20232;-79
2021/10/24 05:46:22;;;;;;;2.47;2.38;;;6.70;99.90;;;;;;5069792;28;20308;-78
2021/10/24 05:48:50;;;;;;;2.28;2.17;;;6.80;99.90;;;;;;5069811;28;20217;-79
2021/10/24 05:51:17;;;;;;;2.38;2.28;;;6.80;99.90;;;;;;5070414;28;20218;-79
2021/10/24 05:53:44;;;;;;;2.38;2.28;;;6.80;99.90;;;;;;5062655;28;20277;-78
2021/10/24 05:56:13;;;;;;;3.25;2.60;;;6.70;99.90;;;;;;5068467;28;20226;-78
2021/10/24 05:58:40;;;;;;;2.03;1.92;;;6.70;99.90;;;;;;5058419;28;20299;-79
2021/10/24 06:01:07;;;;;;;2.70;2.50;;;6.60;99.90;;;;;;5064265;28;20697;-79
2021/10/24 06:03:34;;;;;;;2.33;2.22;;;6.60;99.90;;;;;;5066640;28;20230;-78
2021/10/24 06:06:01;;;;;;;2.70;2.50;;;6.70;99.90;;;;;;5066745;28;20681;-78
2021/10/24 06:08:28;;;;;;;2.30;2.20;;;6.70;99.90;;;;;;5070499;28;20275;-79
2021/10/24 06:11:02;;;;;;;2.65;2.50;;;6.70;99.90;;;;;;5077276;28;20222;-78
2021/10/24 06:13:31;;;;;;;2.70;2.50;;;6.70;99.90;;;;;;5065181;28;20228;-78
2021/10/24 06:15:58;;;;;;;2.42;2.33;;;6.70;99.90;;;;;;5069978;28;20295;-78
2021/10/24 06:18:25;;;;;;;2.67;2.58;;;6.60;99.90;;;;;;5069409;28;20639;-78
2021/10/24 06:20:52;;;;;;;2.35;2.25;;;6.50;99.90;;;;;;5065840;28;20272;-79
2021/10/24 06:23:19;;;;;;;2.38;2.17;;;6.50;99.90;;;;;;5066996;28;20777;-79
2021/10/24 06:25:46;;;;;;;2.83;2.58;;;6.60;99.90;;;;;;5064214;28;20222;-79
2021/10/24 06:28:15;;;;;;;2.55;2.40;;;6.60;99.90;;;;;;5072585;28;20724;-79
2021/10/24 06:30:43;;;;;;;4.53;4.13;;;6.70;99.90;;;;;;5069728;28;20221;-79
2021/10/24 06:33:10;;;;;;;5.78;4.40;;;6.70;99.90;;;;;;5067433;28;20225;-80
2021/10/24 06:35:37;;;;;;;4.97;4.32;;;6.70;99.90;;;;;;5071038;28;20280;-79
2021/10/24 06:38:05;;;;;;;4.47;3.97;;;6.70;99.90;;;;;;5070738;28;20280;-79
2021/10/24 06:40:32;;;;;;;3.92;3.63;;;6.70;99.90;;;;;;5038568;28;20210;-78
2021/10/24 06:42:59;;;;;;;3.30;3.08;;;6.60;99.90;;;;;;5068434;28;20287;-78
2021/10/24 06:45:27;;;;;;;3.45;3.13;;;6.60;99.90;;;;;;5070615;28;20622;-79
2021/10/24 06:47:55;;;;;;;3.50;3.20;;;6.60;99.90;;;;;;5067046;28;20244;-79
2021/10/24 06:50:23;;;;;;;3.15;2.95;;;6.60;99.90;;;;;;5068566;28;20221;-78
2021/10/24 06:52:50;;;;;;;3.10;2.90;;;6.60;99.90;;;;;;5064800;28;20226;-77
2021/10/24 06:55:17;;;;;;;2.95;2.70;;;6.60;99.90;;;;;;5061322;28;20218;-79
2021/10/24 06:57:48;;;;;;;2.80;2.60;;;6.70;99.90;;;;;;5064042;28;20280;-78
2021/10/24 07:00:18;;;;;;;2.92;2.72;;;6.80;99.90;;;;;;5061311;28;20218;-79
2021/10/24 07:02:45;;;;;;;2.83;2.63;;;7.40;99.90;;;;;;5067485;28;20230;-79
2021/10/24 07:05:14;;;;;;;3.67;2.50;;;8.60;99.90;;;;;;5067826;28;20711;-79
2021/10/24 07:07:41;;;;;;;2.72;2.53;;;9.50;99.90;;;;;;5065247;28;20218;-79
2021/10/24 07:10:08;;;;;;;2.30;2.20;;;10.30;99.90;;;;;;5062744;28;20224;-78
2021/10/24 07:12:36;;;;;;;2.00;1.90;;;11.00;99.90;;;;;;5066294;28;20283;-80
2021/10/24 07:15:05;;;;;;;2.30;2.20;;;11.80;99.90;;;;;;5066684;28;20222;-80
2021/10/24 07:17:32;;;;;;;2.15;2.03;;;12.50;99.90;;;;;;5061869;28;20223;-79
2021/10/24 07:19:59;;;;;;;2.60;2.40;;;13.00;99.90;;;;;;5061533;28;20222;-78
2021/10/24 07:22:27;;;;;;;2.85;2.55;;;13.40;99.90;;;;;;5068057;28;20226;-79
2021/10/24 07:24:54;;;;;;;3.67;3.38;;;13.80;99.90;;;;;;5060627;28;20232;-78
2021/10/24 07:27:21;;;;;;;2.70;2.50;;;14.00;99.90;;;;;;5067422;28;20222;-78
2021/10/24 07:29:48;;;;;;;3.15;2.85;;;13.80;99.90;;;;;;5069485;28;20214;-79
2021/10/24 07:32:16;;;;;;;3.17;2.90;;;13.70;99.90;;;;;;5087698;22;20225;-81
2021/10/24 07:34:43;;;;;;;4.68;2.47;;;13.70;99.90;;;;;;5039507;28;20222;-79
2021/10/24 07:37:10;;;;;;;2.70;2.50;;;13.80;99.90;;;;;;5032922;28;20236;-80
2021/10/24 07:39:38;;;;;;;2.17;2.08;;;13.70;99.90;;;;;;5069357;28;20226;-81
2021/10/24 07:42:06;;;;;;;2.58;2.38;;;13.60;99.90;;;;;;5058556;28;20945;-84
2021/10/24 07:44:33;;;;;;;2.47;2.20;;;13.90;99.90;;;;;;5056384;28;20210;-88
2021/10/24 07:47:00;;;;;;;2.67;2.47;;;14.20;99.90;;;;;;5054329;28;20219;-85
2021/10/24 07:49:28;;;;;;;2.42;2.30;;;14.40;99.90;;;;;;5046548;28;20235;-82
2021/10/24 07:51:56;;;;;;;2.97;2.72;;;14.80;99.90;;;;;;5045468;28;20241;-82
2021/10/24 07:54:23;;;;;;;2.47;2.22;;;14.90;99.90;;;;;;5042277;28;20218;-84
2021/10/24 07:56:53;;;;;;;2.42;2.22;;;15.10;99.90;;;;;;5050426;28;20223;-84
2021/10/24 07:59:21;;;;;;;2.60;2.40;;;15.50;99.90;;;;;;5045642;28;20234;-84
2021/10/24 08:01:48;;;;;;;2.28;2.15;;;15.60;99.90;;;;;;5032092;28;20223;-87
2021/10/24 08:04:15;;;;;;;2.70;2.50;;;15.50;99.90;;;;;;4985980;28;20225;-86
2021/10/24 08:06:42;;;;;;;3.00;2.70;;;15.50;99.90;;;;;;5009255;28;20225;-81
2021/10/24 08:09:11;;;;;;;2.88;2.50;;;15.40;99.90;;;;;;5052814;28;20215;-82
2021/10/24 08:11:39;;;;;;;2.90;2.63;;;15.40;99.90;;;;;;5039978;28;20214;-83
2021/10/24 08:14:09;;;;;;;2.35;2.15;;;15.50;99.90;;;;;;5038448;28;20250;-82
2021/10/24 08:16:36;;;;;;;2.33;2.10;;;15.60;99.90;;;;;;5053492;28;20219;-88
2021/10/24 08:19:04;;;;;;;2.45;2.25;;;15.70;99.90;;;;;;5049699;28;20219;-87
2021/10/24 08:21:32;;;;;;;2.20;2.10;;;15.90;99.90;;;;;;5051233;28;20218;-80
2021/10/24 08:24:00;;;;;;;3.03;2.20;;;16.30;99.90;;;;;;5051136;28;20450;-80
2021/10/24 08:26:27;;;;;;;2.40;2.20;;;16.60;99.90;;;;;;5044056;28;20631;-80
2021/10/24 08:28:54;;;;;;;2.42;2.22;;;16.80;99.90;;;;;;5043812;28;20631;-83
2021/10/24 08:31:26;;;;;;;2.05;1.95;;;16.80;99.90;;;;;;5048193;28;20296;-79
2021/10/24 08:33:54;;;;;;;2.47;2.15;;;16.80;99.90;;;;;;5047575;28;20223;-86
2021/10/24 08:36:22;;;;;;;1.92;1.83;;;16.70;99.90;;;;;;5048956;28;20246;-82
2021/10/24 08:38:50;;;;;;;2.47;2.28;;;16.70;99.90;;;;;;5045393;28;20739;-81
2021/10/24 08:41:22;;;;;;;2.30;2.10;;;16.70;99.90;;;;;;5049741;28;20266;-85
2021/10/24 08:43:50;;;;;;;4.28;2.10;;;16.80;99.90;;;;;;5054720;28;20295;-80
2021/10/24 08:46:18;;;;;;;2.10;2.00;;;16.80;99.90;;;;;;5050687;28;20249;-85
2021/10/24 08:48:46;;;;;;;2.13;1.98;;;16.80;99.90;;;;;;5051256;28;20219;-80
2021/10/24 08:51:13;;;;;;;1.95;1.85;;;16.90;99.90;;;;;;5045932;28;20219;-83
2021/10/24 08:53:43;;;;;;;2.25;2.05;;;17.00;99.90;;;;;;5049789;28;20226;-83
2021/10/24 08:56:16;;;;;;;2.05;1.95;;;17.00;99.90;;;;;;5048012;28;20229;-85
2021/10/24 08:58:43;;;;;;;2.42;2.22;;;17.10;99.90;;;;;;5046986;28;20279;-83
2021/10/24 09:01:11;;;;;;;3.70;2.05;;;16.70;99.90;;;;;;5053311;28;20219;-80
2021/10/24 09:03:39;;;;;;;2.03;1.83;;;16.90;99.90;;;;;;5048610;28;20230;-79
2021/10/24 09:06:07;;;;;;;4.00;1.88;;;17.10;99.90;;;;;;5050266;28;20294;-84
2021/10/24 09:08:38;;;;;;;2.20;2.00;;;17.20;99.90;;;;;;5050008;28;20218;-80
2021/10/24 09:11:05;;;;;;;2.47;2.28;;;17.00;99.90;;;;;;5051953;28;20225;-83
2021/10/24 09:13:35;;;;;;;2.03;1.90;;;17.10;99.90;;;;;;5048697;28;20226;-81
2021/10/24 09:16:04;;;;;;;3.50;2.03;;;17.50;99.90;;;;;;5047349;28;20737;-80
2021/10/24 09:18:33;;;;;;;2.45;2.25;;;18.10;99.90;;;;;;5046332;28;20238;-80
2021/10/24 09:21:21;;;;;;;2.58;2.35;;;18.40;99.90;;;;;;5050623;28;20723;-82
2021/10/24 09:23:50;;;;;;;2.33;1.95;;;18.30;99.90;;;;;;5048268;28;20219;-86
2021/10/24 09:26:21;;;;;;;2.25;2.05;;;17.90;99.90;;;;;;5049582;28;20736;-79
2021/10/24 09:29:02;;;;;;;2.63;2.33;;;17.80;99.90;;;;;;5046330;28;20214;-83
2021/10/24 09:31:29;;;;;;;2.85;2.63;;;17.60;99.90;;;;;;5044850;28;20229;-78
2021/10/24 09:33:57;;;;;;;2.20;2.00;;;17.50;99.90;;;;;;5040991;28;20238;-78
2021/10/24 09:36:26;;;;;;;1.98;1.77;;;17.20;99.90;;;;;;5043106;28;20772;-80
2021/10/24 09:39:08;;;;;;;2.20;2.10;;;17.10;99.90;;;;;;5043586;28;20250;-84
2021/10/24 09:41:35;;;;;;;2.28;2.08;;;16.80;99.90;;;;;;5048951;28;20268;-77
2021/10/24 09:44:10;;;;;;;2.42;2.13;;;16.70;99.90;;;;;;5050697;28;20226;-81
2021/10/24 09:46:37;;;;;;;2.00;1.90;;;16.60;99.90;;;;;;5046034;28;20226;-79
2021/10/24 09:49:15;;;;;;;2.58;2.05;;;16.80;99.90;;;;;;5051114;28;20770;-79
2021/10/24 09:51:44;;;;;;;2.75;2.08;;;17.00;99.90;;;;;;5045801;28;20298;-79
2021/10/24 09:54:19;;;;;;;1.95;1.85;;;17.10;99.90;;;;;;5050195;28;20326;-80
2021/10/24 09:56:48;;;;;;;2.08;1.88;;;17.20;99.90;;;;;;5044220;28;20312;-80
2021/10/24 09:59:17;;;;;;;2.60;1.80;;;17.40;99.90;;;;;;5047897;28;20253;-79
2021/10/24 10:01:45;;;;;;;2.10;1.90;;;17.80;99.90;;;;;;5048036;28;20221;-79
2021/10/24 10:04:13;;;;;;;2.10;2.00;;;18.10;99.90;;;;;;5044058;28;20256;-78
2021/10/24 10:06:43;;;;;;;3.15;1.95;;;18.20;99.90;;;;;;5023833;28;20222;-79
2021/10/24 10:09:12;;;;;;;2.08;1.88;;;18.20;99.90;;;;;;5061314;28;20243;-82
2021/10/24 10:11:48;;;;;;;2.20;2.03;;;18.10;99.90;;;;;;5049145;28;20272;-80
2021/10/24 10:14:18;;;;;;;1.80;1.70;;;18.20;99.90;;;;;;5054295;28;20224;-79
2021/10/24 10:16:51;;;;;;;1.88;1.77;;;18.30;99.90;;;;;;5046770;28;20222;-82
2021/10/24 10:19:29;;;;;;;3.17;2.03;;;18.30;99.90;;;;;;5046503;28;20259;-78
2021/10/24 10:21:56;;;;;;;1.73;1.63;;;18.20;99.90;;;;;;5044334;28;20225;-79
2021/10/24 10:24:54;;;;;;;2.47;2.00;;;18.10;99.90;;;;;;5050245;28;20222;-78
2021/10/24 10:27:39;;;;;;;3.72;2.20;;;18.10;99.90;;;;;;5003364;28;20226;-79
2021/10/24 10:30:09;;;;;;;3.03;1.83;;;18.10;99.90;;;;;;5052252;28;20607;-80
2021/10/24 10:32:37;;;;;;;3.53;1.88;;;18.10;99.90;;;;;;5048158;28;20233;-81
2021/10/24 10:35:10;;;;;;;2.65;2.10;;;18.20;99.90;;;;;;5050756;28;20245;-79
2021/10/24 10:37:45;;;;;;;3.88;1.80;;;18.40;99.90;;;;;;5048311;28;20623;-80
2021/10/24 10:40:20;;;;;;;1.83;1.73;;;18.30;99.90;;;;;;5054606;28;20256;-79
2021/10/24 10:43:03;;;;;;;2.10;2.00;;;18.20;99.90;;;;;;5041451;28;20234;-78
2021/10/24 10:45:43;;;;;;;2.03;1.83;;;18.40;99.90;;;;;;5048088;28;20309;-78
2021/10/24 10:48:25;;;;;;;3.00;2.13;;;18.50;99.90;;;;;;5050381;28;20211;-79
2021/10/24 10:50:55;;;;;;;3.95;1.90;;;18.40;99.90;;;;;;5050239;28;20210;-79
2021/10/24 10:53:50;;;;;;;2.15;2.00;;;18.50;99.90;;;;;;5050695;28;20665;-80
2021/10/24 10:56:21;;;;;;;1.70;1.60;;;18.60;99.90;;;;;;5050666;28;20221;-80
2021/10/24 10:58:50;;;;;;;2.05;1.90;;;18.70;99.90;;;;;;5044608;28;20528;-82
2021/10/24 11:01:33;;;;;;;2.10;2.00;;;19.00;99.90;;;;;;5054119;28;20226;-80
2021/10/24 11:04:14;;;;;;;2.92;1.70;;;19.30;99.90;;;;;;5047841;28;20612;-79
2021/10/24 11:06:50;;;;;;;2.05;1.90;;;19.50;99.90;;;;;;5041877;28;20719;-78
2021/10/24 11:09:53;;;;;;;2.28;1.70;;;19.50;99.90;;;;;;5050277;28;20210;-79
2021/10/24 11:12:42;;;;;;;2.03;1.83;;;19.30;99.90;;;;;;5055421;28;20210;-78
2021/10/24 11:15:16;;;;;;;2.75;1.60;;;19.20;99.90;;;;;;5051163;28;20241;-79
2021/10/24 11:17:45;;;;;;;3.22;1.92;;;19.10;99.90;;;;;;5043973;28;20280;-80
2021/10/24 11:20:31;;;;;;;1.83;1.73;;;19.00;99.90;;;;;;5050631;28;20896;-78
2021/10/24 11:23:02;;;;;;;2.20;1.83;;;18.90;99.90;;;;;;5032925;28;20766;-78
2021/10/24 11:25:32;;;;;;;2.65;1.60;;;18.70;99.90;;;;;;5047284;28;20218;-80
2021/10/24 11:28:06;;;;;;;1.90;1.80;;;18.80;99.90;;;;;;5048385;28;20703;-78
2021/10/24 11:30:35;;;;;;;1.88;1.45;;;18.80;99.90;;;;;;5051758;28;20253;-80
2021/10/24 11:33:02;;;;;;;2.10;1.90;;;18.90;99.90;;;;;;5049189;28;20227;-80
2021/10/24 11:35:29;;;;;;;1.83;1.73;;;18.90;99.90;;;;;;5052396;28;20277;-81
2021/10/24 11:37:58;;;;;;;2.47;1.70;;;18.70;99.90;;;;;;5050249;28;20310;-80
2021/10/24 11:40:28;;;;;;;1.83;1.73;;;18.70;99.90;;;;;;5048437;28;20386;-81
2021/10/24 11:43:08;;;;;;;2.05;1.55;;;18.70;99.90;;;;;;5049233;28;20230;-78
2021/10/24 11:45:37;;;;;;;1.88;1.77;;;18.80;99.90;;;;;;5050748;28;20218;-79
2021/10/24 11:48:08;;;;;;;1.50;1.40;;;18.80;99.90;;;;;;5053514;28;20215;-79
2021/10/24 11:50:43;;;;;;;1.77;1.67;;;18.80;99.90;;;;;;5056437;28;20222;-78
2021/10/24 11:53:11;;;;;;;1.83;1.73;;;18.90;99.90;;;;;;5054694;28;20230;-79
2021/10/24 11:55:39;;;;;;;1.90;1.80;;;19.30;99.90;;;;;;5047786;28;20218;-79
2021/10/24 11:58:20;;;;;;;1.90;1.80;;;19.20;99.90;;;;;;5056557;28;20250;-78
2021/10/24 12:00:53;;;;;;;1.60;1.50;;;19.20;99.90;;;;;;5059121;28;20300;-78
2021/10/24 12:03:28;;;;;;;1.73;1.63;;;19.20;99.90;;;;;;5060291;28;20224;-78
2021/10/24 12:05:56;;;;;;;1.83;1.73;;;19.20;99.90;;;;;;5066734;28;20217;-78
2021/10/24 12:08:45;;;;;;;1.83;1.60;;;18.90;99.90;;;;;;5057514;28;20245;-77
2021/10/24 12:11:16;;;;;;;2.00;1.63;;;18.70;99.90;;;;;;5055444;28;20598;-78
2021/10/24 12:13:46;;;;;;;1.50;1.40;;;18.70;99.90;;;;;;5059165;28;20222;-77
2021/10/24 12:16:31;;;;;;;2.22;1.98;;;18.70;99.90;;;;;;5058439;28;20226;-78
2021/10/24 12:19:29;;;;;;;1.80;1.70;;;18.60;99.90;;;;;;5060724;28;20225;-79
2021/10/24 12:22:06;;;;;;;1.77;1.67;;;18.60;99.90;;;;;;5034318;28;20229;-77
2021/10/24 12:24:50;;;;;;;1.98;1.77;;;18.60;99.90;;;;;;5063608;28;20233;-77
2021/10/24 12:27:29;;;;;;;1.95;1.70;;;18.60;99.90;;;;;;5055252;28;20217;-77
2021/10/24 12:30:09;;;;;;;1.80;1.70;;;18.70;99.90;;;;;;5059111;28;20308;-77
2021/10/24 12:32:37;;;;;;;1.60;1.50;;;18.80;99.90;;;;;;5048760;28;20692;-78
2021/10/24 12:35:07;;;;;;;2.00;1.52;;;18.90;99.90;;;;;;5059810;28;20631;-78
2021/10/24 12:37:39;;;;;;;1.60;1.50;;;19.00;99.90;;;;;;5060276;28;20718;-77
2021/10/24 12:40:20;;;;;;;1.73;1.60;;;19.20;99.90;;;;;;5052406;28;20766;-77
2021/10/24 12:43:11;;;;;;;1.75;1.63;;;19.10;99.90;;;;;;5048441;28;20685;-78
2021/10/24 12:45:57;;;;;;;1.40;1.30;;;18.80;99.90;;;;;;5063609;28;20226;-79
2021/10/24 12:48:38;;;;;;;2.45;1.58;;;18.80;99.90;;;;;;5060092;28;20214;-78
2021/10/24 12:51:20;;;;;;;1.75;1.65;;;18.90;99.90;;;;;;5060299;28;20251;-78
2021/10/24 12:53:47;;;;;;;1.58;1.30;;;18.70;99.90;;;;;;5055038;28;20227;-78
2021/10/24 12:56:15;;;;;;;2.97;1.73;;;18.70;99.90;;;;;;5053833;28;20308;-77
2021/10/24 12:58:42;;;;;;;1.60;1.40;;;18.70;99.90;;;;;;5059146;28;20709;-78
2021/10/24 13:01:24;;;;;;;1.55;1.38;;;18.90;99.90;;;;;;5062923;28;20226;-77
2021/10/24 13:03:52;;;;;;;1.58;1.48;;;19.00;99.90;;;;;;5057576;28;20609;-78
2021/10/24 13:06:19;;;;;;;1.10;1.08;;;19.00;99.90;;;;;;5055811;28;20218;-77